Time;durP1;ratioP1;P1;durP2;ratioP2;P2;SDS_P1;SDS_P2;PMS_P1;PMS_P2;Temp;Humidity;BMP_temperature;BMP_pressure;BME280_temperature;BME280_humidity;BME280_pressure;Samples;Min_cycle;Max_cycle;Signal;HPM_P1;HPM_P2
2022/03/06 00:00:08;;;;;;;40.47;22.73;;;;;;;5.18;63.70;101193.13;4988137;28;20030;-77
2022/03/06 00:02:35;;;;;;;40.58;22.35;;;;;;;5.11;63.59;101181.91;4995895;28;20030;-77
2022/03/06 00:05:01;;;;;;;38.70;21.60;;;;;;;5.05;63.66;101195.53;4995695;28;20057;-78
2022/03/06 00:07:26;;;;;;;39.00;20.75;;;;;;;4.98;63.45;101188.78;4995428;28;20065;-78
2022/03/06 00:09:51;;;;;;;35.83;21.45;;;;;;;5.04;63.19;101203.63;4995439;28;20114;-78
2022/03/06 00:12:17;;;;;;;38.38;21.92;;;;;;;5.03;63.80;101202.75;4993140;28;20492;-77
2022/03/06 00:14:42;;;;;;;45.95;22.65;;;;;;;5.05;63.28;101206.19;4984477;28;20491;-78
2022/03/06 00:17:08;;;;;;;29.83;18.63;;;;;;;4.95;63.24;101200.44;4975257;28;20019;-78
2022/03/06 00:19:34;;;;;;;48.42;20.70;;;;;;;4.90;63.23;101193.63;4987022;28;20030;-77
2022/03/06 00:21:59;;;;;;;40.90;20.27;;;;;;;4.87;63.23;101193.78;4994876;28;20113;-77
2022/03/06 00:24:25;;;;;;;34.95;18.55;;;;;;;4.82;63.01;101199.34;4994706;28;20041;-77
2022/03/06 00:26:50;;;;;;;31.95;17.98;;;;;;;4.79;62.75;101204.81;4994593;28;20099;-77
2022/03/06 00:29:16;;;;;;;27.30;16.27;;;;;;;4.70;63.08;101201.72;4993456;28;20087;-77
2022/03/06 00:31:41;;;;;;;34.42;17.48;;;;;;;4.69;62.67;101197.31;4994842;28;20521;-77
2022/03/06 00:34:07;;;;;;;28.45;17.10;;;;;;;4.56;62.68;101196.19;4994086;28;20081;-77
2022/03/06 00:36:32;;;;;;;29.30;16.13;;;;;;;4.40;62.88;101178.25;4995126;28;20034;-77
2022/03/06 00:38:58;;;;;;;31.38;16.73;;;;;;;4.55;62.78;101184.69;4998642;28;20037;-77
2022/03/06 00:41:24;;;;;;;39.55;16.70;;;;;;;4.51;62.74;101177.78;4994094;28;20030;-77
2022/03/06 00:43:50;;;;;;;31.77;18.10;;;;;;;4.53;62.85;101172.34;4995188;28;20026;-78
2022/03/06 00:46:15;;;;;;;33.35;17.88;;;;;;;4.49;62.14;101166.34;4984344;28;20031;-78
2022/03/06 00:48:41;;;;;;;36.33;18.52;;;;;;;4.50;62.39;101164.50;4974796;28;20488;-78
2022/03/06 00:51:06;;;;;;;33.47;17.75;;;;;;;4.45;62.20;101156.75;4989552;28;20037;-78
2022/03/06 00:53:32;;;;;;;37.10;17.65;;;;;;;4.49;61.96;101158.34;4992767;28;20034;-78
2022/03/06 00:55:57;;;;;;;43.25;17.75;;;;;;;4.51;61.97;101160.91;4985252;28;20118;-79
2022/03/06 00:58:23;;;;;;;34.53;19.10;;;;;;;4.54;62.01;101150.13;4974633;28;20027;-77
2022/03/06 01:00:48;;;;;;;26.08;15.30;;;;;;;4.56;61.04;101161.56;4974675;28;20038;-77
2022/03/06 01:03:17;;;;;;;27.67;15.55;;;;;;;4.56;61.06;101158.88;4974218;28;20035;-78
2022/03/06 01:05:44;;;;;;;26.83;15.65;;;;;;;4.53;61.29;101148.38;4974547;28;20473;-78
2022/03/06 01:08:10;;;;;;;30.63;16.75;;;;;;;4.59;61.52;101158.75;4982545;28;20448;-77
2022/03/06 01:10:38;;;;;;;29.38;15.82;;;;;;;4.61;60.96;101159.56;4993200;28;20038;-78
2022/03/06 01:13:05;;;;;;;32.50;16.23;;;;;;;4.54;61.05;101151.00;4993152;28;20030;-78
2022/03/06 01:15:31;;;;;;;27.30;16.05;;;;;;;4.49;61.43;101162.81;4986789;28;20030;-78
2022/03/06 01:17:57;;;;;;;25.90;14.18;;;;;;;4.50;61.56;101162.72;4972560;28;20421;-77
2022/03/06 01:20:24;;;;;;;27.92;14.82;;;;;;;4.46;61.21;101146.97;4972917;28;20023;-78
2022/03/06 01:22:50;;;;;;;24.83;12.43;;;;;;;4.39;61.46;101152.59;4973712;28;20038;-78
2022/03/06 01:25:16;;;;;;;24.98;14.00;;;;;;;4.44;61.75;101162.13;4976149;28;20541;-78
2022/03/06 01:27:42;;;;;;;23.83;13.55;;;;;;;4.43;61.28;101163.09;4993076;28;20057;-78
2022/03/06 01:30:11;;;;;;;24.33;13.30;;;;;;;4.45;61.47;101161.22;4983986;28;20489;-78
2022/03/06 01:32:36;;;;;;;26.88;14.10;;;;;;;4.42;61.34;101162.22;4974003;28;20153;-78
2022/03/06 01:35:02;;;;;;;30.20;13.82;;;;;;;4.36;61.20;101166.06;4988310;28;20081;-78
2022/03/06 01:37:28;;;;;;;24.27;13.25;;;;;;;4.39;61.38;101152.59;4993532;28;20026;-78
2022/03/06 01:39:53;;;;;;;28.23;14.48;;;;;;;4.41;61.35;101147.19;4975775;28;20121;-78
2022/03/06 01:42:19;;;;;;;30.50;16.67;;;;;;;4.45;61.01;101147.91;4974046;28;20035;-78
2022/03/06 01:44:52;;;;;;;27.20;15.18;;;;;;;4.48;61.23;101156.59;4986063;28;20030;-78
2022/03/06 01:47:36;;;;;;;24.85;14.45;;;;;;;4.55;61.00;101151.84;4991914;28;20113;-77
2022/03/06 01:50:04;;;;;;;32.83;16.63;;;;;;;4.47;60.89;101156.66;4993241;28;20396;-77
2022/03/06 01:52:30;;;;;;;25.70;15.82;;;;;;;4.45;61.12;101147.91;4991803;28;20030;-77
2022/03/06 01:54:56;;;;;;;28.98;13.43;;;;;;;4.48;60.94;101150.41;4992896;28;20445;-77
2022/03/06 01:57:22;;;;;;;26.55;14.05;;;;;;;4.46;61.11;101139.84;4991154;28;20076;-78
2022/03/06 01:59:48;;;;;;;22.73;12.82;;;;;;;4.32;61.41;101150.28;4993379;28;20089;-77
2022/03/06 02:02:14;;;;;;;25.27;14.73;;;;;;;4.25;61.50;101139.06;4992703;28;20477;-79
2022/03/06 02:04:40;;;;;;;18.73;12.55;;;;;;;4.31;61.67;101144.09;4992055;28;20471;-79
2022/03/06 02:07:05;;;;;;;21.33;12.95;;;;;;;4.40;61.63;101146.31;4993102;28;20114;-78
2022/03/06 02:09:31;;;;;;;29.58;13.50;;;;;;;4.36;61.20;101147.41;4992788;28;20102;-77
2022/03/06 02:14:41;;;;;;;22.52;12.00;;;;;;;4.51;60.71;101144.94;4993455;28;20178;-79
2022/03/06 02:17:06;;;;;;;23.20;12.25;;;;;;;4.23;61.17;101140.06;4993687;28;20062;-78
2022/03/06 02:19:49;;;;;;;21.10;12.25;;;;;;;4.20;61.40;101138.41;4992326;28;20041;-77
2022/03/06 02:22:14;;;;;;;24.42;13.48;;;;;;;4.15;61.79;101143.09;4991471;28;20053;-78
2022/03/06 02:24:40;;;;;;;25.85;12.25;;;;;;;4.14;61.92;101151.13;4992536;28;20441;-78
2022/03/06 02:27:05;;;;;;;23.90;11.80;;;;;;;4.06;62.14;101147.97;4991449;28;20389;-78
2022/03/06 02:29:32;;;;;;;28.50;11.73;;;;;;;4.14;62.12;101143.16;4990914;28;20026;-78
2022/03/06 02:32:00;;;;;;;25.08;11.15;;;;;;;4.12;61.61;101139.72;4973350;28;20058;-78
2022/03/06 02:34:28;;;;;;;25.25;11.63;;;;;;;4.02;62.14;101152.56;4973207;28;20054;-78
2022/03/06 02:36:53;;;;;;;26.33;11.88;;;;;;;3.95;62.11;101151.13;4976928;28;20113;-78
2022/03/06 02:39:24;;;;;;;21.80;11.13;;;;;;;3.94;62.06;101136.13;4977231;28;20256;-77
2022/03/06 02:41:50;;;;;;;20.77;11.27;;;;;;;4.04;62.13;101147.16;4979231;28;20393;-78
2022/03/06 02:44:15;;;;;;;22.00;10.23;;;;;;;4.11;61.77;101151.28;4998374;28;20034;-78
2022/03/06 02:46:44;;;;;;;17.23;10.82;;;;;;;3.83;62.44;101157.88;4977174;28;20041;-78
2022/03/06 02:49:10;;;;;;;16.95;11.07;;;;;;;3.77;62.75;101146.63;4977128;28;20046;-78
2022/03/06 02:51:36;;;;;;;15.60;10.52;;;;;;;3.85;62.94;101149.84;4977135;28;20030;-77
2022/03/06 02:54:02;;;;;;;25.23;11.32;;;;;;;3.88;62.67;101156.81;4977404;28;20138;-78
2022/03/06 02:56:28;;;;;;;20.05;10.80;;;;;;;3.91;62.51;101160.19;4977138;28;20038;-77
2022/03/06 02:58:53;;;;;;;17.70;10.45;;;;;;;4.01;62.46;101158.81;4990477;28;20035;-78
2022/03/06 03:01:20;;;;;;;18.70;11.23;;;;;;;3.93;62.27;101152.13;4977083;28;20038;-77
2022/03/06 03:03:45;;;;;;;27.00;11.13;;;;;;;3.73;62.28;101142.41;4976156;28;20026;-77
2022/03/06 03:06:11;;;;;;;15.73;10.35;;;;;;;3.79;62.47;101145.63;4977001;28;20030;-78
2022/03/06 03:08:37;;;;;;;16.55;9.95;;;;;;;3.87;62.09;101150.63;4977002;28;20030;-78
2022/03/06 03:11:02;;;;;;;22.63;10.48;;;;;;;3.82;62.56;101157.97;4975649;28;20105;-78
2022/03/06 03:13:28;;;;;;;18.40;10.27;;;;;;;3.86;62.43;101156.88;4975577;28;20138;-78
2022/03/06 03:15:54;;;;;;;20.33;10.38;;;;;;;3.93;62.05;101160.97;4977063;28;20035;-77
2022/03/06 03:18:19;;;;;;;22.33;10.52;;;;;;;3.88;62.22;101163.00;4977221;28;20089;-77
2022/03/06 03:20:45;;;;;;;20.48;10.43;;;;;;;3.85;62.48;101157.81;4978053;28;20069;-79
2022/03/06 03:23:11;;;;;;;19.27;10.02;;;;;;;3.93;62.19;101157.44;4982242;28;20029;-77
2022/03/06 03:25:36;;;;;;;22.60;10.60;;;;;;;3.95;61.86;101166.22;4990958;28;20089;-78
2022/03/06 03:28:02;;;;;;;17.73;10.00;;;;;;;3.97;62.23;101159.91;4976570;28;20447;-78
2022/03/06 03:30:27;;;;;;;18.45;8.93;;;;;;;4.02;62.07;101165.00;4984193;28;20034;-76
2022/03/06 03:32:53;;;;;;;16.95;9.82;;;;;;;4.03;61.84;101166.75;4996313;28;20034;-79
2022/03/06 03:35:18;;;;;;;15.05;8.88;;;;;;;4.11;61.29;101157.47;4995948;28;20038;-79
2022/03/06 03:37:44;;;;;;;17.90;9.88;;;;;;;4.15;61.03;101187.47;4993948;28;20030;-78
2022/03/06 03:40:10;;;;;;;16.50;7.95;;;;;;;4.01;61.39;101181.91;4995527;28;20033;-78
2022/03/06 03:42:36;;;;;;;18.17;10.57;;;;;;;4.03;61.27;101164.97;4994088;28;20481;-77
2022/03/06 03:45:03;;;;;;;14.13;8.95;;;;;;;4.22;60.93;101159.66;4995631;28;20065;-77
2022/03/06 03:47:28;;;;;;;19.55;10.32;;;;;;;4.14;60.71;101173.31;4994113;28;20035;-77
2022/03/06 03:49:54;;;;;;;14.27;7.63;;;;;;;4.06;61.16;101154.19;4996193;28;20149;-78
2022/03/06 03:52:19;;;;;;;14.93;9.75;;;;;;;4.07;60.85;101150.56;4993888;28;20030;-78
2022/03/06 03:54:45;;;;;;;16.52;9.13;;;;;;;4.09;61.21;101170.00;4995521;28;20081;-78
2022/03/06 03:57:10;;;;;;;14.05;8.60;;;;;;;4.05;61.42;101162.22;4994181;28;20034;-79
2022/03/06 03:59:36;;;;;;;19.50;9.48;;;;;;;4.09;61.37;101158.50;4981467;28;20035;-78
2022/03/06 04:02:02;;;;;;;19.00;9.30;;;;;;;4.06;60.89;101159.50;4976535;28;20026;-77
2022/03/06 04:04:27;;;;;;;17.23;9.45;;;;;;;3.92;61.20;101155.72;4974707;28;20039;-79
2022/03/06 04:06:53;;;;;;;20.23;10.18;;;;;;;3.88;61.91;101144.38;4974265;28;20858;-78
2022/03/06 04:09:18;;;;;;;18.50;10.35;;;;;;;3.84;61.55;101137.47;4975966;28;20034;-78
2022/03/06 04:11:44;;;;;;;19.45;9.85;;;;;;;3.89;61.62;101131.91;4988743;28;20042;-79
2022/03/06 04:14:09;;;;;;;22.25;9.85;;;;;;;3.94;61.52;101137.91;4995291;28;20030;-79
2022/03/06 04:16:35;;;;;;;28.45;9.80;;;;;;;3.89;61.68;101135.44;4994942;28;20072;-78
2022/03/06 04:19:00;;;;;;;24.80;10.35;;;;;;;3.87;61.95;101142.63;4995107;28;20154;-77
2022/03/06 04:21:25;;;;;;;22.17;11.23;;;;;;;3.81;62.10;101113.66;4993858;28;20030;-77
2022/03/06 04:23:51;;;;;;;16.88;9.52;;;;;;;3.94;62.38;101122.81;4980461;28;20161;-78
2022/03/06 04:26:16;;;;;;;34.03;11.00;;;;;;;3.77;62.22;101125.34;4975293;28;20389;-78
2022/03/06 04:28:42;;;;;;;20.70;9.57;;;;;;;3.79;62.34;101127.00;4974879;28;20090;-77
2022/03/06 04:31:07;;;;;;;19.73;10.02;;;;;;;3.96;62.20;101130.72;4984307;28;20461;-78
2022/03/06 04:33:33;;;;;;;24.70;11.70;;;;;;;3.87;62.21;101121.34;4993114;28;20041;-77
2022/03/06 04:35:58;;;;;;;26.25;10.70;;;;;;;3.96;61.80;101115.59;4994938;28;20461;-77
2022/03/06 04:38:24;;;;;;;21.15;10.27;;;;;;;4.08;61.46;101120.34;4994302;28;20030;-78
2022/03/06 04:40:49;;;;;;;30.33;9.73;;;;;;;4.12;61.52;101121.94;4993644;28;20029;-77
2022/03/06 04:43:15;;;;;;;24.17;10.75;;;;;;;4.15;61.90;101107.63;4994673;28;20037;-78
2022/03/06 04:45:40;;;;;;;19.45;10.30;;;;;;;4.30;61.74;101120.22;4993511;28;20037;-77
2022/03/06 04:48:06;;;;;;;21.35;8.35;;;;;;;4.43;61.29;101118.69;4994475;28;20482;-78
2022/03/06 04:50:31;;;;;;;26.17;10.63;;;;;;;4.47;61.02;101116.72;4993910;28;20038;-78
2022/03/06 04:52:57;;;;;;;16.88;11.10;;;;;;;4.51;60.89;101119.19;4982394;28;20393;-78
2022/03/06 04:55:22;;;;;;;17.08;9.18;;;;;;;4.51;60.75;101128.97;4973675;28;20030;-78
2022/03/06 04:57:48;;;;;;;18.23;10.80;;;;;;;4.44;60.79;101135.50;4973244;28;20057;-78
2022/03/06 05:00:15;;;;;;;24.42;11.07;;;;;;;4.52;60.80;101126.25;4974763;28;20102;-77
2022/03/06 05:02:41;;;;;;;23.58;11.00;;;;;;;4.53;60.15;101146.59;4984083;28;20467;-78
2022/03/06 05:05:07;;;;;;;17.73;10.45;;;;;;;4.43;60.63;101128.47;4993822;28;20034;-76
2022/03/06 05:07:32;;;;;;;18.52;9.85;;;;;;;4.40;60.40;101124.16;4992352;28;20072;-79
2022/03/06 05:09:58;;;;;;;27.95;12.55;;;;;;;4.16;60.71;101120.84;4993535;28;20806;-77
2022/03/06 05:12:23;;;;;;;25.85;11.80;;;;;;;4.33;60.99;101125.38;4993564;28;20037;-77
2022/03/06 05:14:49;;;;;;;18.45;11.02;;;;;;;4.36;61.07;101131.44;4975023;28;20489;-78
2022/03/06 05:17:16;;;;;;;25.08;12.65;;;;;;;4.40;60.97;101129.50;4974633;28;20027;-79
2022/03/06 05:19:41;;;;;;;23.00;12.23;;;;;;;4.39;60.41;101130.41;4974252;28;20473;-78
2022/03/06 05:22:07;;;;;;;26.60;13.73;;;;;;;4.23;60.61;101113.44;4973006;28;20035;-78
2022/03/06 05:24:32;;;;;;;29.58;13.57;;;;;;;4.33;60.60;101133.38;4978516;28;20031;-76
2022/03/06 05:26:58;;;;;;;23.50;11.13;;;;;;;4.37;60.35;101132.31;4974645;28;20034;-79
2022/03/06 05:29:23;;;;;;;25.42;13.63;;;;;;;4.39;60.35;101125.97;4973010;28;20026;-77
2022/03/06 05:31:49;;;;;;;49.75;21.20;;;;;;;4.30;60.75;101126.41;4974359;28;20069;-79
2022/03/06 05:34:14;;;;;;;33.05;13.85;;;;;;;4.21;60.73;101129.50;4974253;28;20393;-77
2022/03/06 05:36:40;;;;;;;31.42;12.90;;;;;;;4.14;61.30;101120.06;4976863;28;20041;-78
2022/03/06 05:39:05;;;;;;;39.58;15.70;;;;;;;4.17;61.43;101135.91;4973673;28;20058;-77
2022/03/06 05:41:31;;;;;;;33.40;15.25;;;;;;;4.22;61.90;101136.53;4973913;28;20369;-77
2022/03/06 05:43:56;;;;;;;41.03;16.63;;;;;;;4.28;61.97;101133.56;4979442;28;20030;-80
2022/03/06 05:46:22;;;;;;;27.77;12.30;;;;;;;4.42;61.34;101134.72;4993846;28;20030;-75
2022/03/06 05:48:48;;;;;;;27.45;13.63;;;;;;;4.44;61.21;101138.16;4974586;28;20062;-78
2022/03/06 05:51:14;;;;;;;33.63;13.00;;;;;;;4.51;61.27;101142.28;4977136;28;20031;-78
2022/03/06 05:53:39;;;;;;;22.63;13.07;;;;;;;4.58;61.52;101149.91;4989895;28;20030;-77
2022/03/06 05:56:05;;;;;;;20.92;12.82;;;;;;;4.70;60.72;101151.97;4991708;28;20084;-78
2022/03/06 05:58:31;;;;;;;17.42;10.43;;;;;;;4.82;60.23;101154.03;4993308;28;20030;-76
2022/03/06 06:00:56;;;;;;;16.73;10.82;;;;;;;4.80;60.32;101147.06;4992968;28;20444;-78
2022/03/06 06:03:22;;;;;;;24.63;10.77;;;;;;;4.84;60.38;101144.16;4990401;28;20121;-77
2022/03/06 06:05:47;;;;;;;22.40;10.57;;;;;;;4.93;60.53;101148.16;4993051;28;20034;-77
2022/03/06 06:08:13;;;;;;;34.50;11.63;;;;;;;5.03;60.15;101143.25;4992523;28;20046;-76
2022/03/06 06:10:38;;;;;;;16.02;9.75;;;;;;;5.02;59.67;101145.03;4977565;28;20477;-79
2022/03/06 06:13:04;;;;;;;21.70;11.00;;;;;;;5.15;59.43;101159.47;4972335;28;20035;-79
2022/03/06 06:15:30;;;;;;;17.50;10.00;;;;;;;5.13;59.83;101149.84;4974335;28;20088;-80
2022/03/06 06:17:55;;;;;;;21.92;9.98;;;;;;;5.20;59.31;101156.59;4973359;28;20031;-76
2022/03/06 06:20:20;;;;;;;27.13;11.20;;;;;;;5.32;59.71;101162.13;4973046;28;20401;-76
2022/03/06 06:22:46;;;;;;;30.48;13.63;;;;;;;5.28;59.58;101165.06;4972827;28;20042;-76
2022/03/06 06:25:12;;;;;;;17.25;10.02;;;;;;;5.33;59.07;101158.53;4973143;28;20439;-77
2022/03/06 06:27:37;;;;;;;17.60;9.73;;;;;;;5.39;59.21;101160.91;4976739;28;20636;-77
2022/03/06 06:30:03;;;;;;;17.48;9.75;;;;;;;5.36;58.96;101171.72;4991673;28;20416;-75
2022/03/06 06:32:28;;;;;;;21.20;9.68;;;;;;;5.39;58.92;101171.56;4992001;28;20034;-77
2022/03/06 06:34:54;;;;;;;16.10;10.02;;;;;;;5.46;58.69;101173.00;4992504;28;20026;-79
2022/03/06 06:37:20;;;;;;;28.42;9.70;;;;;;;5.45;59.06;101160.56;4991114;28;20030;-81
2022/03/06 06:39:45;;;;;;;15.02;9.65;;;;;;;5.26;58.48;101157.13;4992430;28;20030;-80
2022/03/06 06:42:11;;;;;;;19.80;9.18;;;;;;;5.27;58.73;101166.84;4992611;28;20062;-78
2022/03/06 06:44:36;;;;;;;21.42;10.07;;;;;;;5.20;59.16;101160.09;4992743;28;20030;-78
2022/03/06 06:47:03;;;;;;;17.17;10.57;;;;;;;5.32;59.26;101170.16;4983209;28;20062;-78
2022/03/06 06:49:29;;;;;;;15.20;10.27;;;;;;;5.33;59.31;101150.53;4974249;28;20058;-77
2022/03/06 06:51:54;;;;;;;21.55;10.93;;;;;;;5.52;58.78;101157.59;4973464;28;20397;-77
2022/03/06 06:54:20;;;;;;;19.48;9.85;;;;;;;5.35;58.90;101167.31;4978925;28;20389;-76
2022/03/06 06:56:46;;;;;;;25.35;10.95;;;;;;;5.52;59.06;101154.94;4973057;28;20058;-80
2022/03/06 06:59:13;;;;;;;19.92;8.93;;;;;;;5.64;58.87;101162.28;4974225;28;20101;-77
2022/03/06 07:01:39;;;;;;;21.48;9.85;;;;;;;5.80;58.54;101165.88;4971414;28;20528;-77
2022/03/06 07:04:05;;;;;;;18.27;9.00;;;;;;;5.79;58.27;101141.00;4972379;28;20058;-76
2022/03/06 07:06:30;;;;;;;16.10;9.43;;;;;;;5.73;58.17;101153.78;4972605;28;20462;-76
2022/03/06 07:08:56;;;;;;;22.30;8.93;;;;;;;5.76;58.18;101157.16;4980623;28;20054;-79
2022/03/06 07:11:21;;;;;;;20.83;10.48;;;;;;;5.87;58.29;101159.31;4990752;28;20030;-78
2022/03/06 07:13:47;;;;;;;15.93;8.57;;;;;;;6.08;57.98;101151.94;4972900;28;20070;-78
2022/03/06 07:16:15;;;;;;;41.28;17.17;;;;;;;6.33;57.38;101155.00;4973028;28;20031;-80
2022/03/06 07:18:40;;;;;;;27.50;13.13;;;;;;;6.34;57.08;101154.91;4977115;28;20030;-81
2022/03/06 07:21:06;;;;;;;15.73;8.32;;;;;;;6.42;56.68;101139.28;4992709;28;20045;-78
2022/03/06 07:23:32;;;;;;;18.45;8.80;;;;;;;6.42;57.01;101158.00;4995528;28;20125;-79
2022/03/06 07:25:58;;;;;;;23.33;11.30;;;;;;;6.47;56.58;101123.88;4987786;28;20035;-78
2022/03/06 07:28:23;;;;;;;34.17;12.15;;;;;;;6.58;56.34;101153.53;4996303;28;20034;-78
2022/03/06 07:30:49;;;;;;;18.75;9.13;;;;;;;6.70;56.22;101149.28;4995666;28;20088;-79
2022/03/06 07:33:15;;;;;;;43.80;11.52;;;;;;;6.75;56.09;101139.22;4995630;28;20030;-78
2022/03/06 07:35:41;;;;;;;18.33;11.30;;;;;;;6.89;55.67;101147.28;4986901;28;20088;-84
2022/03/06 07:38:06;;;;;;;13.35;7.85;;;;;;;6.84;55.38;101129.78;4976272;28;20034;-80
2022/03/06 07:40:32;;;;;;;21.25;8.60;;;;;;;6.96;55.71;101137.09;4976139;28;20023;-78
2022/03/06 07:42:58;;;;;;;18.40;8.40;;;;;;;6.96;54.83;101129.94;4977595;28;20038;-81
2022/03/06 07:45:24;;;;;;;14.88;7.68;;;;;;;6.92;54.67;101133.75;4994926;28;20030;-81
2022/03/06 07:47:49;;;;;;;14.65;8.52;;;;;;;6.94;54.64;101117.63;4994482;28;20034;-80
2022/03/06 07:50:15;;;;;;;15.95;7.63;;;;;;;7.01;54.25;101140.34;4996320;28;20030;-82
2022/03/06 07:52:41;;;;;;;13.40;7.70;;;;;;;6.89;54.46;101122.34;4995272;28;20030;-78
2022/03/06 07:55:08;;;;;;;13.75;7.00;;;;;;;6.78;54.08;101114.97;4994248;28;20022;-81
2022/03/06 07:57:34;;;;;;;16.38;7.43;;;;;;;6.87;54.11;101116.25;4994422;28;20505;-79
2022/03/06 08:00:00;;;;;;;18.45;8.27;;;;;;;6.98;54.29;101119.16;4989075;28;20014;-80
2022/03/06 08:02:25;;;;;;;18.40;9.38;;;;;;;7.07;54.50;101126.63;4974489;28;20117;-80
2022/03/06 08:04:52;;;;;;;14.75;7.68;;;;;;;7.18;54.20;101132.22;4976004;28;20030;-82
2022/03/06 08:07:17;;;;;;;15.20;7.68;;;;;;;7.20;53.76;101114.25;4975710;28;20060;-80
2022/03/06 08:09:43;;;;;;;17.20;8.80;;;;;;;7.41;53.80;101138.84;4979536;28;20524;-82
2022/03/06 08:12:08;;;;;;;16.23;8.00;;;;;;;7.33;54.00;101099.19;4996741;28;20093;-79
2022/03/06 08:14:34;;;;;;;20.13;8.05;;;;;;;7.62;53.67;101138.44;4996825;28;20101;-81
2022/03/06 08:17:02;;;;;;;14.88;7.70;;;;;;;7.46;53.68;101112.69;4993282;28;20034;-78
2022/03/06 08:19:28;;;;;;;15.15;7.80;;;;;;;7.52;53.17;101105.13;4994624;28;20488;-79
2022/03/06 08:21:54;;;;;;;17.25;7.25;;;;;;;7.88;53.04;101150.22;4994172;28;20090;-81
2022/03/06 08:24:20;;;;;;;21.70;7.07;;;;;;;7.67;52.90;101114.06;4995383;28;20022;-81
2022/03/06 08:26:45;;;;;;;28.75;7.82;;;;;;;7.72;52.93;101121.78;4993112;28;20493;-85
2022/03/06 08:29:11;;;;;;;11.75;6.75;;;;;;;7.66;52.94;101106.97;4975071;28;20493;-80
2022/03/06 08:31:36;;;;;;;20.17;8.73;;;;;;;7.86;53.15;101146.75;4974129;28;20037;-81
2022/03/06 08:34:03;;;;;;;14.93;7.03;;;;;;;7.74;53.00;101109.16;4975406;28;20039;-77
2022/03/06 08:36:28;;;;;;;18.48;7.05;;;;;;;7.80;52.18;101141.78;4993845;28;20038;-77
2022/03/06 08:38:54;;;;;;;40.67;8.63;;;;;;;7.75;52.69;101132.31;4992932;28;20073;-77
2022/03/06 08:41:19;;;;;;;18.33;7.53;;;;;;;7.68;52.90;101129.16;4999470;28;20076;-84
2022/03/06 08:43:45;;;;;;;15.32;7.03;;;;;;;7.50;52.64;101128.47;4991429;28;20045;-77
2022/03/06 08:46:10;;;;;;;14.70;7.45;;;;;;;7.64;53.28;101131.16;4994526;28;20532;-79
2022/03/06 08:48:37;;;;;;;14.93;6.97;;;;;;;7.62;53.43;101133.06;4994518;28;20050;-78
2022/03/06 08:51:07;;;;;;;12.25;8.40;;;;;;;7.79;53.76;101136.53;4988968;28;20094;-80
2022/03/06 08:53:33;;;;;;;30.92;9.25;;;;;;;7.89;53.88;101151.09;4973272;28;20589;-79
2022/03/06 08:55:59;;;;;;;20.25;7.25;;;;;;;7.72;54.15;101125.34;4975156;28;20532;-77
2022/03/06 08:58:25;;;;;;;24.40;7.85;;;;;;;7.78;54.20;101129.44;4978262;28;20054;-80
2022/03/06 09:00:51;;;;;;;13.70;7.45;;;;;;;7.80;54.58;101135.59;4993480;28;20054;-78
2022/03/06 09:03:17;;;;;;;18.67;8.02;;;;;;;7.91;54.80;101133.97;4978961;28;20073;-79
2022/03/06 09:05:42;;;;;;;22.38;8.88;;;;;;;7.96;55.19;101130.97;4993737;28;20459;-77
2022/03/06 09:08:09;;;;;;;27.27;8.30;;;;;;;8.27;55.12;101140.63;4974218;28;20046;-76
2022/03/06 09:10:36;;;;;;;16.38;8.48;;;;;;;8.32;54.60;101136.72;4972989;28;20485;-78
2022/03/06 09:13:02;;;;;;;31.58;10.02;;;;;;;8.49;54.44;101155.28;4973114;28;20081;-78
2022/03/06 09:15:28;;;;;;;20.77;10.05;;;;;;;8.54;54.90;101139.75;4972890;28;20035;-77
2022/03/06 09:17:53;;;;;;;14.93;7.78;;;;;;;8.60;54.75;101136.66;4979795;28;20435;-77
2022/03/06 09:20:19;;;;;;;20.55;8.40;;;;;;;8.70;54.91;101135.13;4993234;28;20465;-77
2022/03/06 09:22:46;;;;;;;15.18;8.38;;;;;;;8.72;54.56;101130.50;4992059;28;20050;-77
2022/03/06 09:25:12;;;;;;;23.50;8.10;;;;;;;8.77;54.21;101141.78;4975854;28;20410;-78
2022/03/06 09:27:37;;;;;;;16.10;8.43;;;;;;;8.86;53.73;101136.78;4973865;28;20046;-77
2022/03/06 09:30:04;;;;;;;16.55;8.63;;;;;;;8.73;53.84;101128.69;4980361;28;20034;-77
2022/03/06 09:32:30;;;;;;;17.35;9.35;;;;;;;8.93;53.95;101135.44;4993682;28;20060;-77
2022/03/06 09:34:55;;;;;;;11.85;7.13;;;;;;;9.00;53.43;101137.59;4993662;28;20125;-77
2022/03/06 09:37:21;;;;;;;54.67;11.50;;;;;;;9.16;52.87;101135.59;4992673;28;20031;-77
2022/03/06 09:39:46;;;;;;;31.38;8.63;;;;;;;9.22;52.34;101121.78;4976286;28;20105;-76
2022/03/06 09:42:12;;;;;;;18.30;8.73;;;;;;;9.16;51.58;101121.31;4993140;28;20527;-77
2022/03/06 09:44:37;;;;;;;19.30;7.90;;;;;;;9.23;51.68;101122.63;4990939;28;20040;-76
2022/03/06 09:47:05;;;;;;;23.08;8.30;;;;;;;9.31;51.01;101125.66;4989187;28;20026;-79
2022/03/06 09:49:30;;;;;;;17.38;7.25;;;;;;;9.11;50.90;101123.47;4983962;28;20424;-77
2022/03/06 09:51:56;;;;;;;29.48;10.35;;;;;;;9.17;51.53;101118.53;4993852;28;20030;-84
2022/03/06 09:54:23;;;;;;;13.13;8.18;;;;;;;9.11;51.14;101123.47;4982529;28;20026;-77
2022/03/06 09:56:49;;;;;;;22.23;7.53;;;;;;;9.11;50.93;101123.47;4985866;28;20043;-79
2022/03/06 09:59:14;;;;;;;15.70;7.18;;;;;;;9.00;51.41;101110.75;4973509;28;20030;-79
2022/03/06 10:01:40;;;;;;;16.05;8.38;;;;;;;9.02;51.22;101122.22;4977020;28;20113;-76
2022/03/06 10:04:24;;;;;;;14.73;7.53;;;;;;;8.93;51.09;101111.28;4992831;28;20465;-77
2022/03/06 10:06:58;;;;;;;16.25;8.57;;;;;;;9.05;51.40;101107.78;4981761;28;20042;-77
2022/03/06 10:09:26;;;;;;;15.25;7.82;;;;;;;9.00;50.80;101108.06;4974005;28;20066;-78
2022/03/06 10:11:54;;;;;;;35.78;8.85;;;;;;;9.06;51.80;101106.81;4988628;28;20433;-80
2022/03/06 10:14:40;;;;;;;11.18;6.72;;;;;;;9.10;50.75;101100.28;4993372;28;20035;-80
2022/03/06 10:17:16;;;;;;;18.50;6.80;;;;;;;8.70;51.10;101085.97;4992862;28;20461;-76
2022/03/06 10:19:50;;;;;;;15.68;7.05;;;;;;;8.82;51.21;101097.72;4985021;28;20027;-78
2022/03/06 10:22:17;;;;;;;14.27;8.18;;;;;;;8.75;51.35;101079.34;4983519;28;20378;-79
2022/03/06 10:24:50;;;;;;;27.48;8.95;;;;;;;8.80;51.52;101080.88;4985094;28;20070;-80
2022/03/06 10:27:16;;;;;;;27.27;8.52;;;;;;;8.94;51.50;101095.06;4975187;28;20223;-82
2022/03/06 10:29:43;;;;;;;16.17;7.30;;;;;;;8.74;51.56;101071.41;4978027;28;20022;-80
2022/03/06 10:32:09;;;;;;;30.83;8.63;;;;;;;8.89;52.01;101088.31;4981320;28;20070;-80
2022/03/06 10:34:39;;;;;;;17.73;8.82;;;;;;;8.93;52.60;101092.50;4972480;28;20057;-79
2022/03/06 10:37:05;;;;;;;19.75;8.93;;;;;;;9.02;52.35;101097.25;4992743;28;20024;-79
2022/03/06 10:39:45;;;;;;;21.13;8.60;;;;;;;8.99;51.84;101087.56;4982149;28;20019;-79
2022/03/06 10:42:11;;;;;;;39.45;11.13;;;;;;;9.01;52.51;101088.34;4987113;28;20038;-76
2022/03/06 10:44:46;;;;;;;13.68;8.13;;;;;;;9.04;52.27;101084.59;4976294;28;20042;-76
2022/03/06 10:47:12;;;;;;;27.05;7.63;;;;;;;9.09;51.23;101077.06;4972533;28;20105;-77
2022/03/06 10:49:38;;;;;;;18.95;7.22;;;;;;;8.92;50.95;101074.69;4971770;28;20075;-76
2022/03/06 10:52:17;;;;;;;22.27;7.70;;;;;;;8.93;51.95;101060.31;4979332;28;20460;-76
2022/03/06 10:54:53;;;;;;;14.80;7.88;;;;;;;9.11;51.88;101064.44;4992158;28;20401;-75
2022/03/06 10:57:20;;;;;;;45.67;11.05;;;;;;;9.24;52.06;101065.28;4996384;28;20092;-76
2022/03/06 10:59:47;;;;;;;16.55;9.70;;;;;;;9.33;51.79;101053.91;4994652;28;20037;-77
2022/03/06 11:02:13;;;;;;;11.90;7.45;;;;;;;9.62;50.95;101060.81;4996163;28;20489;-76
2022/03/06 11:04:39;;;;;;;19.02;8.52;;;;;;;9.77;50.00;101062.41;4995019;28;20041;-78
2022/03/06 11:07:05;;;;;;;18.42;7.18;;;;;;;9.69;49.68;101056.69;4995976;28;20045;-76
2022/03/06 11:09:31;;;;;;;16.70;7.72;;;;;;;9.58;49.31;101061.97;4996187;28;20481;-77
2022/03/06 11:11:57;;;;;;;19.15;8.57;;;;;;;9.70;49.74;101053.06;4995735;28;20054;-76
2022/03/06 11:14:23;;;;;;;15.80;7.55;;;;;;;9.77;49.89;101035.53;4996021;28;20456;-76
2022/03/06 11:16:48;;;;;;;12.95;6.65;;;;;;;9.89;49.69;101041.84;4995253;28;20030;-77
2022/03/06 11:19:14;;;;;;;15.82;8.52;;;;;;;10.00;49.49;101039.25;4995183;28;20188;-77